createdAt,value
2023-12-10T00:04:24.013Z,96588.13
2023-12-10T00:09:28.589Z,96602.06
2023-12-10T00:14:33.592Z,96600.00
2023-12-10T00:19:36.829Z,96641.56
2023-12-10T00:24:39.978Z,96650.03
2023-12-10T00:29:44.954Z,96644.66
2023-12-10T00:34:49.439Z,96628.00
2023-12-10T00:39:52.630Z,96643.53
2023-12-10T00:44:57.172Z,96676.59
2023-12-10T00:50:00.380Z,96663.59
2023-12-10T00:55:04.108Z,96677.69
2023-12-10T01:00:13.622Z,96680.03
2023-12-10T01:05:17.497Z,96699.75
2023-12-10T01:10:20.911Z,96692.84
2023-12-10T01:15:31.870Z,96694.72
2023-12-10T01:20:35.958Z,96709.13
2023-12-10T01:25:39.222Z,96706.84
2023-12-10T01:30:43.886Z,96714.00
2023-12-10T01:35:47.207Z,96714.53
2023-12-10T01:40:50.487Z,96712.38
2023-12-10T01:45:55.914Z,96709.72
2023-12-10T01:50:59.262Z,96727.59
2023-12-10T01:56:02.681Z,96713.81
2023-12-10T02:01:08.384Z,96698.53
2023-12-10T02:06:11.612Z,96701.56
2023-12-10T02:11:15.656Z,96718.81
2023-12-10T02:16:20.213Z,96739.56
2023-12-10T02:21:23.387Z,96762.16
2023-12-10T02:26:28.153Z,96729.25
2023-12-10T02:31:31.351Z,96724.69
2023-12-10T02:36:34.523Z,96732.13
2023-12-10T02:41:39.033Z,96736.75
2023-12-10T02:46:45.798Z,96741.03
2023-12-10T02:51:49.173Z,96764.91
2023-12-10T02:56:53.769Z,96764.16
2023-12-10T03:01:56.890Z,96781.47
2023-12-10T03:07:00.021Z,96772.94
2023-12-10T03:12:05.087Z,96761.31
2023-12-10T03:17:08.407Z,96749.16
2023-12-10T03:22:11.588Z,96760.03
2023-12-10T03:27:16.168Z,96736.22
2023-12-10T03:32:19.366Z,96737.63
2023-12-10T03:37:22.799Z,96738.50
2023-12-10T03:42:27.689Z,96736.00
2023-12-10T03:47:31.188Z,96753.84
2023-12-10T03:52:34.421Z,96764.09
2023-12-10T03:57:39.089Z,96754.84
2023-12-10T04:02:44.803Z,96776.13
2023-12-10T04:07:50.103Z,96774.69
2023-12-10T04:12:54.741Z,96759.00
2023-12-10T04:17:58.517Z,96758.28
2023-12-10T04:23:01.715Z,96759.06
2023-12-10T04:28:08.119Z,96768.88
2023-12-10T04:33:11.469Z,96748.31
2023-12-10T04:38:14.632Z,96770.28
2023-12-10T04:43:19.180Z,96749.53
2023-12-10T04:48:22.446Z,96740.69
2023-12-10T04:53:25.621Z,96749.63
2023-12-10T04:58:30.680Z,96767.66
2023-12-10T05:03:34.308Z,96778.03
2023-12-10T05:08:37.527Z,96788.75
2023-12-10T05:13:42.053Z,96789.00
2023-12-10T05:18:45.404Z,96797.56
2023-12-10T05:23:48.668Z,96811.09
2023-12-10T05:28:53.225Z,96801.63
2023-12-10T05:33:56.379Z,96799.09
2023-12-10T05:38:59.554Z,96803.03
2023-12-10T05:44:04.200Z,96816.13
2023-12-10T05:49:07.776Z,96833.16
2023-12-10T05:54:11.091Z,96841.66
2023-12-10T05:59:16.207Z,96827.88
2023-12-10T06:04:19.456Z,96837.53
2023-12-10T06:09:22.710Z,96856.63
2023-12-10T06:14:27.303Z,96864.75
2023-12-10T06:19:30.573Z,96865.22
2023-12-10T06:24:33.863Z,96866.75
2023-12-10T06:29:40.533Z,96883.16
2023-12-10T06:34:43.822Z,96876.09
2023-12-10T06:39:47.111Z,96879.78
2023-12-10T06:44:51.759Z,96875.00
2023-12-10T06:49:54.996Z,96891.84
2023-12-10T06:55:00.839Z,96894.75
2023-12-10T07:00:07.401Z,96884.75
2023-12-10T07:05:10.814Z,96891.25
2023-12-10T07:10:14.028Z,96902.06
2023-12-10T07:15:18.684Z,96897.22
2023-12-10T07:20:21.839Z,96901.59
2023-12-10T07:25:25.248Z,96900.34
2023-12-10T07:30:30.553Z,96902.66
2023-12-10T07:35:33.776Z,96922.09
2023-12-10T07:40:36.965Z,96932.59
2023-12-10T07:45:41.546Z,96937.47
2023-12-10T07:50:44.737Z,96935.13
2023-12-10T07:55:47.969Z,96945.41
2023-12-10T08:00:52.865Z,96939.06
2023-12-10T08:05:56.170Z,96952.44
2023-12-10T08:11:00.295Z,96936.75
2023-12-10T08:16:06.148Z,96938.28
2023-12-10T08:21:12.004Z,96950.94
2023-12-10T08:26:15.173Z,96959.22
2023-12-10T08:31:19.768Z,96980.09
2023-12-10T08:36:23.001Z,96985.88
2023-12-10T08:41:26.185Z,96976.72
2023-12-10T08:46:30.735Z,96970.13
2023-12-10T08:51:33.939Z,96980.84
2023-12-10T08:56:37.098Z,96983.81
2023-12-10T09:01:41.704Z,96984.84
2023-12-10T09:06:44.972Z,96983.91
2023-12-10T09:11:49.038Z,96987.78
2023-12-10T09:16:53.984Z,97007.38
2023-12-10T09:21:57.520Z,97013.88
2023-12-10T09:27:01.375Z,97010.66
2023-12-10T09:32:06.666Z,97014.84
2023-12-10T09:37:11.913Z,97023.16
2023-12-10T09:42:15.099Z,97026.25
2023-12-10T09:47:19.753Z,97011.13
2023-12-10T09:52:22.969Z,97024.56
2023-12-10T09:57:29.297Z,97020.97
2023-12-10T10:02:34.542Z,97016.19
2023-12-10T10:07:38.067Z,97018.44
2023-12-10T10:12:41.351Z,97011.38
2023-12-10T10:17:47.501Z,96995.78
2023-12-10T10:22:52.320Z,96995.63
2023-12-10T10:27:55.498Z,96991.84
2023-12-10T10:33:00.446Z,96983.59
2023-12-10T10:38:03.672Z,96983.69
2023-12-10T10:43:06.859Z,96968.72
2023-12-10T10:48:11.686Z,96965.81
2023-12-10T10:53:15.381Z,96956.38
2023-12-10T10:58:25.777Z,96950.44
2023-12-10T11:03:31.141Z,96940.03
2023-12-10T11:08:35.526Z,96941.16
2023-12-10T11:13:49.013Z,96930.63
2023-12-10T11:18:54.941Z,96919.75
2023-12-10T11:23:58.303Z,96899.34
2023-12-10T11:29:04.099Z,96897.75
2023-12-10T11:34:08.730Z,96885.78
2023-12-10T11:39:14.917Z,96890.03
2023-12-10T11:44:18.083Z,96879.22
2023-12-10T11:49:22.996Z,96885.94
2023-12-10T11:54:26.244Z,96874.00
2023-12-10T11:59:29.491Z,96860.44
2023-12-10T12:04:35.164Z,96865.00
2023-12-10T12:09:39.943Z,96847.78
2023-12-10T12:14:43.466Z,96848.78
2023-12-10T12:19:48.480Z,96829.41
2023-12-10T12:24:51.823Z,96813.19
2023-12-10T12:29:54.982Z,96816.13
2023-12-10T12:34:59.611Z,96810.00
2023-12-10T12:40:05.236Z,96789.19
2023-12-10T12:45:10.043Z,96780.25
2023-12-10T12:50:14.587Z,96763.75
2023-12-10T12:55:18.162Z,96759.59
2023-12-10T13:00:21.512Z,96752.50
2023-12-10T13:05:26.157Z,96752.09
2023-12-10T13:10:29.342Z,96746.88
2023-12-10T13:15:32.699Z,96742.34
2023-12-10T13:20:37.234Z,96739.13
2023-12-10T13:25:40.466Z,96733.09
2023-12-10T13:30:43.656Z,96726.81
2023-12-10T13:35:48.278Z,96718.34
2023-12-10T13:40:51.502Z,96724.09
2023-12-10T13:45:55.959Z,96716.75
2023-12-10T13:51:00.556Z,96713.78
2023-12-10T13:56:04.749Z,96708.53
2023-12-10T14:01:08.090Z,96699.19
2023-12-10T14:06:12.755Z,96695.97
2023-12-10T14:11:17.026Z,96670.44
2023-12-10T14:16:21.415Z,96682.63
2023-12-10T14:21:32.385Z,96661.44
2023-12-10T14:26:36.308Z,96667.56
2023-12-10T14:31:39.570Z,96681.34
2023-12-10T14:36:44.638Z,96664.47
2023-12-10T14:41:48.025Z,96681.44
2023-12-10T14:46:51.174Z,96696.28
2023-12-10T14:51:55.919Z,96704.97
2023-12-10T14:56:59.204Z,96717.72
2023-12-10T15:02:09.589Z,96730.78
2023-12-10T15:07:16.790Z,96717.50
2023-12-10T15:12:20.019Z,96701.72
2023-12-10T15:17:23.231Z,96707.00
2023-12-10T15:22:29.068Z,96711.44
2023-12-10T15:27:32.580Z,96718.50
2023-12-10T15:32:36.136Z,96738.47
2023-12-10T15:37:40.636Z,96722.13
2023-12-10T15:42:45.610Z,96713.22
2023-12-10T15:47:51.204Z,96712.63
2023-12-10T15:52:55.742Z,96728.19
2023-12-10T15:57:58.981Z,96730.19
2023-12-10T16:03:02.282Z,96740.06
2023-12-10T16:08:06.946Z,96748.16
2023-12-10T16:13:10.175Z,96737.84
2023-12-10T16:18:13.614Z,96688.19
2023-12-10T16:23:18.233Z,96676.09
2023-12-10T16:28:21.390Z,96669.22
2023-12-10T16:33:26.059Z,96678.50
2023-12-10T16:38:30.796Z,96681.16
2023-12-10T16:43:35.447Z,96667.44
2023-12-10T16:48:38.720Z,96671.25
2023-12-10T16:53:43.294Z,96672.06
2023-12-10T16:58:46.677Z,96657.72
2023-12-10T17:03:49.896Z,96646.63
2023-12-10T17:08:54.532Z,96647.44
2023-12-10T17:13:57.849Z,96643.59
2023-12-10T17:19:01.235Z,96627.88
2023-12-10T17:24:06.315Z,96625.25
2023-12-10T17:29:09.488Z,96638.13
2023-12-10T17:34:13.466Z,96620.38
2023-12-10T17:39:18.476Z,96615.34
2023-12-10T17:44:21.674Z,96617.78
2023-12-10T17:49:24.933Z,96625.03
2023-12-10T17:54:31.121Z,96621.19
2023-12-10T17:59:34.605Z,96616.16
2023-12-10T18:04:37.781Z,96613.72
2023-12-10T18:09:42.400Z,96612.13
2023-12-10T18:14:45.650Z,96618.97
2023-12-10T18:19:48.970Z,96588.72
2023-12-10T18:24:53.555Z,96581.84
2023-12-10T18:29:56.728Z,96574.78
2023-12-10T18:35:00.008Z,96573.81
2023-12-10T18:40:05.250Z,96558.66
2023-12-10T18:45:09.453Z,96557.22
2023-12-10T18:50:12.661Z,96544.09
2023-12-10T18:55:17.417Z,96540.28
2023-12-10T19:00:21.424Z,96534.81
2023-12-10T19:05:24.674Z,96550.31
2023-12-10T19:10:29.908Z,96557.22
2023-12-10T19:15:33.163Z,96545.91
2023-12-10T19:20:36.344Z,96549.56
2023-12-10T19:25:41.492Z,96543.50
2023-12-10T19:30:44.715Z,96562.09
2023-12-10T19:35:47.851Z,96558.88
2023-12-10T19:40:54.651Z,96564.72
2023-12-10T19:45:57.960Z,96553.41
2023-12-10T19:51:02.654Z,96566.13
2023-12-10T19:56:08.932Z,96568.97
2023-12-10T20:01:12.209Z,96582.88
2023-12-10T20:06:15.954Z,96582.47
2023-12-10T20:11:20.533Z,96613.69
2023-12-10T20:16:23.724Z,96618.84
2023-12-10T20:21:26.994Z,96595.81
2023-12-10T20:26:40.106Z,96521.34
2023-12-10T20:31:46.410Z,96545.56
2023-12-10T20:36:49.621Z,96549.91
2023-12-10T20:41:54.379Z,96578.88
2023-12-10T20:46:57.630Z,96558.84
2023-12-10T20:52:00.871Z,96540.22
2023-12-10T20:57:05.724Z,96543.22
2023-12-10T21:02:09.348Z,96540.16
2023-12-10T21:07:12.593Z,96534.97
2023-12-10T21:12:17.162Z,96504.72
2023-12-10T21:17:20.319Z,96509.31
2023-12-10T21:22:23.875Z,96497.25
2023-12-10T21:27:28.964Z,96502.91
2023-12-10T21:32:32.389Z,96492.69
2023-12-10T21:37:35.516Z,96456.63
2023-12-10T21:42:40.090Z,96468.28
2023-12-10T21:47:43.363Z,96452.53
2023-12-10T21:52:46.660Z,96474.25
2023-12-10T21:57:51.170Z,96455.34
2023-12-10T22:02:54.376Z,96464.44
2023-12-10T22:07:57.568Z,96477.81
2023-12-10T22:13:02.207Z,96478.72
2023-12-10T22:18:05.491Z,96472.63
2023-12-10T22:23:08.746Z,96474.94
2023-12-10T22:28:13.611Z,96467.09
2023-12-10T22:33:16.953Z,96473.06
2023-12-10T22:38:20.173Z,96479.19
2023-12-10T22:43:24.772Z,96491.63
2023-12-10T22:48:28.035Z,96476.31
2023-12-10T22:53:31.467Z,96476.06
2023-12-10T22:58:36.004Z,96468.22
2023-12-10T23:03:39.348Z,96471.09
2023-12-10T23:08:42.633Z,96469.44
2023-12-10T23:13:47.183Z,96465.91
2023-12-10T23:18:50.396Z,96459.78
2023-12-10T23:23:53.530Z,96458.66
2023-12-10T23:28:58.310Z,96462.88
2023-12-10T23:34:02.201Z,96454.19
2023-12-10T23:39:05.568Z,96462.69
2023-12-10T23:44:10.609Z,96451.34
2023-12-10T23:49:14.216Z,96449.38
2023-12-10T23:54:17.395Z,96449.19
2023-12-10T23:59:22.335Z,96444.00
